Surface Preassure
0:00 UTC
12:00 UTC (Click for larger versions)
Andrewsfield Outlook

Current time:


  07:47:07am (GMT)      07:47:07am (UTC)


Headline: Some sunny spells, isolated showers later.

Today: After a cool start, a mainly dry morning across the region with some sunny spells. However, cloud will increase to bring the odd shower in the afternoon. Maximum Temperature 14C.

Tonight: Any showers soon dying out to leave a dry night with long clear spells, leading to a touch of ground frost in some rural parts by morning. Minimum Temperature 3C.

Friday: After a chilly start, a mostly dry day with some sunny spells at first, but increasing cloud may bring the odd shower by afternoon. Becoming breezy in coastal parts. Maximum Temperature 16C.

Outlook for Saturday to Monday: Windy on Saturday with some heavy and persistent rain spreading from the east. Staying unsettled through Sunday and Monday with occasional rain or showers, but also some brighter spells.

Nearby METAR/TAF

Stansted (EGSS)


Current conditions: MVFR

METAR: EGSS 010720Z AUTO VRB03KT 9999 OVC017 11/10 Q0998

TAF: TAF EGSS 010455Z 0106/0212 24006KT 9999 FEW012 SCT025 TEMPO 0106/0111 BKN010 PROB30 TEMPO 0106/0108 4000 -RA BR BKN006 PROB30 TEMPO 0111/0118 6000 SHRA BECMG 0121/0124 14010KT PROB30 TEMPO 0123/0206 6000 RADZ BKN014 BECMG 0203/0206 08014KT TEMPO 0206/0212 6000 RA BKN014 PROB30 TEMPO 0206/0212 08017G27KT 4000 +RA SHRA

Southend (EGMC)


Current conditions: MVFR

METAR: EGMC 010720Z 28005KT 9999 FEW010 BKN016 12/11 Q0997

TAF: TAF EGMC 010459Z 0106/0115 17006KT 9999 SCT025 BECMG 0106/0109 26010KT PROB40 TEMPO 0106/0109 7000 BKN008 PROB30 TEMPO 0112/0115 7000 SHRA

RAF Wattisham (EGUW)


Current conditions: MVFR

METAR: EGUW 010720Z 29005KT 9999 FEW010 BKN019 12/11 Q0997 TEMPO SCT010 RMK WHT TEMPO GRN

TAF: TAF EGUW 010725Z 0109/0118 29008KT 9999 SCT025 TEMPO 0109/0113 BKN012 TEMPO 0113/0118 -SHRA SCT018